Terminal Aerodrome Forecast
Issued by NWS Upton, NY

Current Version | Previous Version | Text Only | Print | Product List | Glossary On
Versions: 1 2 3 4 5 6 7 8 9 10 11 12 13 14 15 16 17 18 19 20 21 22 23 24 25 26 27 28 29 30 31 32
000
FTUS41 KOKX 252300
TAFEWR
TAF
KEWR 252337Z 2600/2706 24008KT P6SM SCT050
     FM260400 27012G18KT P6SM BKN050
     FM260900 28012G20KT P6SM SCT050
     FM261500 29020G30KT P6SM BKN050
     FM262300 29015G25KT P6SM FEW050
     FM270200 29012KT P6SM FEW050=

USA.gov is the U.S. government's official web portal to all federal, state and local government web resources and services.